Hiram, Arkansas
Current Conditions -  °F | °C
As of 11:56 PM on Sunday 25 Jan 2015 (Local Time) from KSRC Reporting Station
Overcast Overcast  
Wind Chill: 38°   Ceiling: 2800
Heat Index: 43°   Visibility: 10mi
Dew Point: 33°   Wind: 8mph
Humidity: 68%   Direction: 320°NW
Pressure: 30.04"   Gusts: 16mph
Location:  35.4452°N, 91.9033°W
Report Text: KSRC 260556Z AUTO 32007G14KT 10SM OVC028 06/01 A3004 RMK AO2 SLP181 T00610006 10083 20061 51018 TSNO
Loading
Personal Weather Stations






























Interactive Weather Map New forecast layout! Learn more

10-Day Weather Forecast

Advertisements
Track Severe Weather on mobile